Time;durP1;ratioP1;P1;durP2;ratioP2;P2;SDS_P1;SDS_P2;PMS_P1;PMS_P2;Temp;Humidity;BMP_temperature;BMP_pressure;BME280_temperature;BME280_humidity;BME280_pressure;Samples;Min_cycle;Max_cycle;Signal;HPM_P1;HPM_P2
2021/12/02 00:00:53;;;;;;;1.10;0.90;;;;;;;;;;6259799;23;20237;-87
2021/12/02 00:03:58;;;;;;;1.20;0.80;;;;;;;;;;6259549;23;20173;-90
2021/12/02 00:07:05;;;;;;;1.80;0.97;;;;;;;;;;6245771;23;20498;-89
2021/12/02 00:10:12;;;;;;;1.03;0.87;;;;;;;;;;6260451;22;20174;-90
2021/12/02 00:13:22;;;;;;;1.40;1.10;;;;;;;;;;6246004;23;20154;-90
2021/12/02 00:16:32;;;;;;;3.87;1.20;;;;;;;;;;6260179;23;20194;-89
2021/12/02 00:23:17;;;;;;;1.30;1.00;;;;;;;;;;6258501;23;20219;-88
2021/12/02 00:26:24;;;;;;;1.43;1.10;;;;;;;;;;6258940;23;20166;-88
2021/12/02 00:29:31;;;;;;;5.47;1.13;;;;;;;;;;6259907;23;20165;-87
2021/12/02 00:32:40;;;;;;;2.80;1.00;;;;;;;;;;6261472;23;20171;-88
2021/12/02 00:35:45;;;;;;;1.80;1.10;;;;;;;;;;6259304;23;20190;-90
2021/12/02 00:38:51;;;;;;;1.40;1.00;;;;;;;;;;6243538;23;20198;-89
2021/12/02 00:41:58;;;;;;;2.10;1.10;;;;;;;;;;6213210;23;20171;-89
2021/12/02 00:45:04;;;;;;;1.90;1.10;;;;;;;;;;6211102;23;20199;-88
2021/12/02 00:48:10;;;;;;;1.03;0.90;;;;;;;;;;6214303;23;20473;-87
2021/12/02 00:51:15;;;;;;;1.70;1.10;;;;;;;;;;6212990;23;20214;-90
2021/12/02 00:54:22;;;;;;;1.57;1.13;;;;;;;;;;6213229;23;20216;-89
2021/12/02 00:57:29;;;;;;;2.10;1.00;;;;;;;;;;6214342;23;20200;-88
2021/12/02 01:00:35;;;;;;;1.73;0.97;;;;;;;;;;6214094;23;20163;-87
2021/12/02 01:03:40;;;;;;;2.17;0.80;;;;;;;;;;6212641;23;20167;-89
2021/12/02 01:06:45;;;;;;;2.57;1.50;;;;;;;;;;6214000;23;20158;-91
2021/12/02 01:09:54;;;;;;;1.77;0.90;;;;;;;;;;6215126;23;20171;-88
2021/12/02 01:13:02;;;;;;;1.50;0.90;;;;;;;;;;6214396;23;20206;-88
2021/12/02 01:16:08;;;;;;;1.10;0.80;;;;;;;;;;6213952;23;20179;-88
2021/12/02 01:19:13;;;;;;;1.93;1.00;;;;;;;;;;6214708;23;20167;-89
2021/12/02 01:22:19;;;;;;;1.23;0.90;;;;;;;;;;6214541;23;20245;-90
2021/12/02 01:25:24;;;;;;;1.43;0.97;;;;;;;;;;6213207;23;20175;-89
2021/12/02 01:28:30;;;;;;;2.83;1.00;;;;;;;;;;6212875;23;20163;-90
2021/12/02 01:31:36;;;;;;;1.07;0.80;;;;;;;;;;6212373;23;20162;-88
2021/12/02 01:34:42;;;;;;;1.00;0.60;;;;;;;;;;6213693;23;20164;-90
2021/12/02 01:37:48;;;;;;;1.13;0.90;;;;;;;;;;6218149;23;20181;-90
2021/12/02 01:40:54;;;;;;;1.17;0.70;;;;;;;;;;6262434;22;20166;-87
2021/12/02 01:44:01;;;;;;;0.90;0.70;;;;;;;;;;6261637;22;20194;-90
2021/12/02 01:47:11;;;;;;;1.30;0.70;;;;;;;;;;6260118;23;20229;-89
2021/12/02 01:50:20;;;;;;;1.47;0.80;;;;;;;;;;6258739;22;20187;-88
2021/12/02 01:53:25;;;;;;;1.40;0.80;;;;;;;;;;6260854;23;20239;-89
2021/12/02 01:56:32;;;;;;;0.93;0.70;;;;;;;;;;6262263;23;20193;-90
2021/12/02 01:59:39;;;;;;;1.10;0.70;;;;;;;;;;6263006;23;20166;-88
2021/12/02 02:02:44;;;;;;;1.73;0.60;;;;;;;;;;6245433;23;20314;-88
2021/12/02 02:05:52;;;;;;;1.33;0.80;;;;;;;;;;6227077;23;20190;-88
2021/12/02 02:08:59;;;;;;;1.27;0.70;;;;;;;;;;6263834;22;20602;-91
2021/12/02 02:12:06;;;;;;;2.00;0.73;;;;;;;;;;6263272;22;20166;-88
2021/12/02 02:15:12;;;;;;;1.40;0.70;;;;;;;;;;6263079;23;20193;-90
2021/12/02 02:18:21;;;;;;;0.70;0.60;;;;;;;;;;6262308;23;20171;-88
2021/12/02 02:21:28;;;;;;;0.80;0.70;;;;;;;;;;6259892;23;20214;-88
2021/12/02 02:24:38;;;;;;;1.07;0.60;;;;;;;;;;6263152;23;20170;-91
2021/12/02 02:27:45;;;;;;;0.97;0.70;;;;;;;;;;6263335;23;20169;-89
2021/12/02 02:30:51;;;;;;;0.90;0.60;;;;;;;;;;6261460;23;20174;-89
2021/12/02 02:33:57;;;;;;;1.20;0.60;;;;;;;;;;6244241;23;20170;-88
2021/12/02 02:37:05;;;;;;;2.17;0.70;;;;;;;;;;6243518;23;20284;-89
2021/12/02 02:40:13;;;;;;;0.83;0.67;;;;;;;;;;6262626;23;20177;-88
2021/12/02 02:43:23;;;;;;;2.00;0.90;;;;;;;;;;6260963;23;20233;-92
2021/12/02 02:46:29;;;;;;;0.87;0.50;;;;;;;;;;6258832;23;20162;-88
2021/12/02 02:49:35;;;;;;;2.33;0.77;;;;;;;;;;6259419;22;20161;-88
2021/12/02 02:52:42;;;;;;;0.80;0.60;;;;;;;;;;6259339;23;20194;-91
2021/12/02 02:55:55;;;;;;;1.57;0.60;;;;;;;;;;6260822;23;20194;-89
2021/12/02 02:59:10;;;;;;;1.30;0.50;;;;;;;;;;6263292;22;20171;-89
2021/12/02 03:02:24;;;;;;;0.63;0.60;;;;;;;;;;6263023;23;20158;-89
2021/12/02 03:05:38;;;;;;;0.93;0.60;;;;;;;;;;6261956;23;20162;-89
2021/12/02 03:08:50;;;;;;;0.80;0.70;;;;;;;;;;6261635;22;20171;-88
2021/12/02 03:11:59;;;;;;;1.60;0.70;;;;;;;;;;6261945;22;20171;-89
2021/12/02 03:18:28;;;;;;;0.77;0.67;;;;;;;;;;6263061;23;20167;-91
2021/12/02 03:21:33;;;;;;;1.40;0.70;;;;;;;;;;6244782;23;20194;-88
2021/12/02 03:24:40;;;;;;;1.17;0.80;;;;;;;;;;6243442;23;20170;-86
2021/12/02 03:27:45;;;;;;;0.73;0.57;;;;;;;;;;6243048;23;20200;-88
2021/12/02 03:30:50;;;;;;;1.67;0.70;;;;;;;;;;6259948;23;20170;-91
2021/12/02 03:33:55;;;;;;;2.00;0.77;;;;;;;;;;6264448;22;20154;-88
2021/12/02 03:37:01;;;;;;;1.33;0.70;;;;;;;;;;6263233;22;20668;-89
2021/12/02 03:40:09;;;;;;;1.40;0.70;;;;;;;;;;6263592;22;20163;-87
2021/12/02 03:43:14;;;;;;;4.17;0.60;;;;;;;;;;6262706;23;20174;-90
2021/12/02 03:46:20;;;;;;;1.00;0.80;;;;;;;;;;6261980;22;20590;-89
2021/12/02 03:49:26;;;;;;;1.33;0.70;;;;;;;;;;6261185;23;20173;-88
2021/12/02 03:52:31;;;;;;;0.70;0.70;;;;;;;;;;6265882;22;20186;-91
2021/12/02 03:55:38;;;;;;;0.77;0.70;;;;;;;;;;6246234;23;20174;-88
2021/12/02 03:58:45;;;;;;;0.83;0.63;;;;;;;;;;6261222;23;20170;-89
2021/12/02 04:01:53;;;;;;;3.43;0.60;;;;;;;;;;6261425;23;20594;-89
2021/12/02 04:04:58;;;;;;;2.83;0.70;;;;;;;;;;6261347;23;20198;-86
2021/12/02 04:08:03;;;;;;;0.83;0.70;;;;;;;;;;6262668;23;20197;-87
2021/12/02 04:11:18;;;;;;;2.00;1.07;;;;;;;;;;6261929;23;20163;-89
2021/12/02 04:14:28;;;;;;;0.70;0.60;;;;;;;;;;6261653;22;20175;-88
2021/12/02 04:17:43;;;;;;;1.37;0.80;;;;;;;;;;6244411;23;20194;-90
2021/12/02 04:20:48;;;;;;;2.03;0.93;;;;;;;;;;6245152;23;20265;-89
2021/12/02 04:23:54;;;;;;;1.23;0.70;;;;;;;;;;6262262;22;20169;-88
2021/12/02 04:27:01;;;;;;;1.50;0.70;;;;;;;;;;6263355;23;20216;-89
2021/12/02 04:30:07;;;;;;;1.03;0.90;;;;;;;;;;6262484;22;20166;-89
2021/12/02 04:39:05;;;;;;;1.10;0.77;;;;;;;;;;6210483;22;20415;-88
2021/12/02 04:42:11;;;;;;;0.80;0.60;;;;;;;;;;6243059;23;20178;-88
2021/12/02 04:45:17;;;;;;;0.87;0.60;;;;;;;;;;6260484;23;20167;-89
2021/12/02 04:48:23;;;;;;;0.90;0.87;;;;;;;;;;6261396;22;20179;-91
2021/12/02 04:51:30;;;;;;;0.90;0.70;;;;;;;;;;6261678;23;20166;-88
2021/12/02 04:54:35;;;;;;;1.30;0.80;;;;;;;;;;6261252;22;20186;-88
2021/12/02 04:57:42;;;;;;;1.00;0.63;;;;;;;;;;6261471;22;20247;-88
2021/12/02 05:00:50;;;;;;;2.07;0.80;;;;;;;;;;6261891;23;20162;-85
2021/12/02 05:03:55;;;;;;;3.07;1.23;;;;;;;;;;6262391;22;20166;-89
2021/12/02 05:07:00;;;;;;;2.43;1.00;;;;;;;;;;6262236;23;20194;-88
2021/12/02 05:10:06;;;;;;;2.97;0.90;;;;;;;;;;6262129;23;20170;-88
2021/12/02 05:13:13;;;;;;;4.13;1.10;;;;;;;;;;6262140;23;20201;-88
2021/12/02 05:16:19;;;;;;;1.43;0.80;;;;;;;;;;6244589;22;20209;-90
2021/12/02 05:19:24;;;;;;;1.50;0.60;;;;;;;;;;6262090;22;20181;-89
2021/12/02 05:22:29;;;;;;;1.13;0.60;;;;;;;;;;6263483;23;20174;-90
2021/12/02 05:25:35;;;;;;;2.80;0.97;;;;;;;;;;6262323;23;20166;-90
2021/12/02 05:28:42;;;;;;;1.63;0.93;;;;;;;;;;6246589;23;20182;-88
2021/12/02 05:31:48;;;;;;;2.53;1.40;;;;;;;;;;6263496;23;20174;-87
2021/12/02 05:34:54;;;;;;;3.80;1.70;;;;;;;;;;6265815;23;20178;-90
2021/12/02 05:38:00;;;;;;;5.33;1.90;;;;;;;;;;6265081;22;20202;-90
2021/12/02 05:41:06;;;;;;;2.67;0.87;;;;;;;;;;6236958;23;20190;-89
2021/12/02 05:44:13;;;;;;;1.43;0.97;;;;;;;;;;6217547;23;20204;-89
2021/12/02 05:47:18;;;;;;;3.40;1.40;;;;;;;;;;6215700;23;20218;-90
2021/12/02 05:50:23;;;;;;;3.47;1.30;;;;;;;;;;6216457;23;20512;-89
2021/12/02 05:53:29;;;;;;;3.93;1.30;;;;;;;;;;6216055;23;20212;-88
2021/12/02 05:56:34;;;;;;;2.67;1.10;;;;;;;;;;6216240;23;20271;-89
2021/12/02 05:59:41;;;;;;;3.17;1.10;;;;;;;;;;6214188;23;20171;-89
2021/12/02 06:02:46;;;;;;;3.30;1.40;;;;;;;;;;6218092;23;20182;-91
2021/12/02 06:06:01;;;;;;;3.43;1.70;;;;;;;;;;6218775;23;20171;-89
2021/12/02 06:09:07;;;;;;;3.53;1.80;;;;;;;;;;6217663;23;20187;-90
2021/12/02 06:12:16;;;;;;;2.57;1.43;;;;;;;;;;6217262;23;20167;-90
2021/12/02 06:15:25;;;;;;;4.03;2.00;;;;;;;;;;6237029;23;20158;-89
2021/12/02 06:18:30;;;;;;;2.10;1.27;;;;;;;;;;6217000;23;20198;-89
2021/12/02 06:21:36;;;;;;;1.53;1.30;;;;;;;;;;6236078;23;20175;-89
2021/12/02 06:24:48;;;;;;;4.90;1.57;;;;;;;;;;6219126;23;20199;-90
2021/12/02 06:27:56;;;;;;;3.23;1.90;;;;;;;;;;6217497;23;20174;-88
2021/12/02 06:31:06;;;;;;;4.77;1.73;;;;;;;;;;6217195;23;20163;-88
2021/12/02 06:34:11;;;;;;;3.23;1.50;;;;;;;;;;6218262;23;20167;-88
2021/12/02 06:37:20;;;;;;;4.07;1.93;;;;;;;;;;6220654;23;20210;-88
2021/12/02 06:40:26;;;;;;;4.50;2.10;;;;;;;;;;6238089;23;20257;-89
2021/12/02 06:43:31;;;;;;;5.27;2.23;;;;;;;;;;6266193;23;20174;-90
2021/12/02 06:46:39;;;;;;;5.47;1.80;;;;;;;;;;6266268;23;20186;-89
2021/12/02 06:49:44;;;;;;;11.57;5.53;;;;;;;;;;6267978;22;20162;-91
2021/12/02 06:52:53;;;;;;;4.40;2.17;;;;;;;;;;6266381;22;20497;-89
2021/12/02 06:55:58;;;;;;;6.13;2.53;;;;;;;;;;6267276;22;20162;-90
2021/12/02 06:59:04;;;;;;;4.90;2.37;;;;;;;;;;6265567;22;20243;-90
2021/12/02 07:02:13;;;;;;;5.40;2.40;;;;;;;;;;6265871;23;20193;-88
2021/12/02 07:05:20;;;;;;;4.87;2.80;;;;;;;;;;6265807;23;20186;-89
2021/12/02 07:08:33;;;;;;;4.50;2.70;;;;;;;;;;6266968;22;20190;-90
2021/12/02 07:11:43;;;;;;;8.03;2.73;;;;;;;;;;6268270;22;20223;-90
2021/12/02 23:54:44;;;;;;;13.40;6.50;;;;;;;;;;6155785;23;20169;-88
2021/12/02 23:57:50;;;;;;;12.97;6.50;;;;;;;;;;6156269;23;20233;-92
